createdAt,value
2022-10-03T00:00:15.231Z,99628.44
2022-10-03T00:03:09.601Z,99628.91
2022-10-03T00:05:39.962Z,99633.59
2022-10-03T00:08:10.859Z,99636.91
2022-10-03T00:11:00.558Z,99638.03
2022-10-03T00:13:50.655Z,99636.69
2022-10-03T00:16:29.289Z,99637.53
2022-10-03T00:19:17.875Z,99642.34
2022-10-03T00:22:04.592Z,99646.94
2022-10-03T00:24:41.586Z,99650.94
2022-10-03T00:27:20.603Z,99652.59
2022-10-03T00:30:09.832Z,99644.22
2022-10-03T00:32:59.610Z,99648.22
2022-10-03T00:35:32.535Z,99647.25
2022-10-03T00:38:07.378Z,99650.56
2022-10-03T00:40:57.425Z,99652.88
2022-10-03T00:43:37.671Z,99653.63
2022-10-03T00:46:14.539Z,99649.38
2022-10-03T00:49:02.893Z,99664.31
2022-10-03T00:51:50.622Z,99658.41
2022-10-03T00:54:31.064Z,99660.75
2022-10-03T00:57:25.958Z,99660.75
2022-10-03T01:00:20.280Z,99669.84
2022-10-03T01:03:02.948Z,99666.56
2022-10-03T01:05:46.565Z,99672.22
2022-10-03T01:08:40.890Z,99671.75
2022-10-03T01:11:19.365Z,99675.38
2022-10-03T01:14:05.681Z,99671.09
2022-10-03T01:16:57.241Z,99667.34
2022-10-03T01:19:28.462Z,99665.41
2022-10-03T01:22:16.432Z,99666.88
2022-10-03T01:25:05.468Z,99663.22
2022-10-03T01:28:04.830Z,99652.25
2022-10-03T01:30:41.069Z,99663.56
2022-10-03T01:33:11.370Z,99664.72
2022-10-03T01:35:43.970Z,99665.09
2022-10-03T01:38:31.205Z,99673.94
2022-10-03T01:41:04.100Z,99671.47
2022-10-03T01:43:36.776Z,99672.38
2022-10-03T01:46:39.063Z,99670.63
2022-10-03T01:49:09.506Z,99670.78
2022-10-03T01:51:44.847Z,99676.13
2022-10-03T01:54:26.443Z,99673.72
2022-10-03T01:57:15.035Z,99675.06
2022-10-03T01:59:55.573Z,99685.88
2022-10-03T02:02:35.169Z,99687.25
2022-10-03T02:05:17.261Z,99687.03
2022-10-03T02:08:01.296Z,99689.19
2022-10-03T02:10:28.173Z,99681.31
2022-10-03T02:13:10.049Z,99683.78
2022-10-03T02:15:54.648Z,99684.41
2022-10-03T02:18:47.998Z,99677.56
2022-10-03T02:21:29.170Z,99668.94
2022-10-03T02:24:14.000Z,99668.47
2022-10-03T02:26:45.273Z,99667.09
2022-10-03T02:29:22.780Z,99683.13
2022-10-03T02:32:08.303Z,99673.59
2022-10-03T02:34:52.211Z,99683.78
2022-10-03T02:37:34.234Z,99686.94
2022-10-03T02:40:29.743Z,99687.09
2022-10-03T02:43:19.479Z,99691.00
2022-10-03T02:45:53.227Z,99685.72
2022-10-03T02:48:48.043Z,99702.56
2022-10-03T02:51:36.960Z,99695.66
2022-10-03T02:54:11.041Z,99695.50
2022-10-03T02:56:47.337Z,99695.81
2022-10-03T02:59:39.212Z,99698.94
2022-10-03T03:02:17.356Z,99701.66
2022-10-03T03:04:58.059Z,99704.75
2022-10-03T03:07:30.863Z,99711.50
2022-10-03T03:10:20.859Z,99715.19
2022-10-03T03:12:53.409Z,99712.16
2022-10-03T03:15:36.846Z,99709.41
2022-10-03T03:18:19.854Z,99701.91
2022-10-03T03:21:10.062Z,99706.63
2022-10-03T03:23:36.826Z,99713.69
2022-10-03T03:26:06.395Z,99716.03
2022-10-03T03:28:55.471Z,99718.13
2022-10-03T03:31:29.927Z,99714.81
2022-10-03T03:34:22.819Z,99710.81
2022-10-03T03:36:54.399Z,99713.97
2022-10-03T03:39:28.974Z,99711.44
2022-10-03T03:41:55.820Z,99721.47
2022-10-03T03:44:37.614Z,99719.00
2022-10-03T03:47:29.042Z,99716.75
2022-10-03T03:50:05.187Z,99719.44
2022-10-03T03:52:49.188Z,99714.84
2022-10-03T03:55:31.015Z,99722.00
2022-10-03T03:58:00.914Z,99720.56
2022-10-03T04:00:37.582Z,99718.91
2022-10-03T04:03:08.899Z,99721.78
2022-10-03T04:05:48.616Z,99714.28
2022-10-03T04:08:21.172Z,99709.28
2022-10-03T04:10:58.722Z,99716.41
2022-10-03T04:13:42.383Z,99710.81
2022-10-03T04:16:57.769Z,99703.16
2022-10-03T04:19:30.117Z,99702.44
2022-10-03T04:21:56.863Z,99710.84
2022-10-03T04:24:26.431Z,99707.78
2022-10-03T04:26:53.362Z,99713.72
2022-10-03T04:29:41.422Z,99727.03
2022-10-03T04:32:23.568Z,99724.00
2022-10-03T04:35:02.187Z,99731.66
2022-10-03T04:37:49.379Z,99732.94
2022-10-03T04:40:35.066Z,99730.38
2022-10-03T04:43:10.655Z,99737.50
2022-10-03T04:46:00.960Z,99737.50
2022-10-03T04:48:39.498Z,99742.66
2022-10-03T04:51:18.302Z,99750.84
2022-10-03T04:53:52.700Z,99753.56
2022-10-03T04:56:59.790Z,99752.34
2022-10-03T04:59:44.275Z,99763.75
2022-10-03T05:02:40.964Z,99771.13
2022-10-03T05:05:31.012Z,99769.50
2022-10-03T05:08:16.338Z,99768.59
2022-10-03T05:11:06.065Z,99762.44
2022-10-03T05:13:42.511Z,99775.72
2022-10-03T05:16:29.779Z,99776.22
2022-10-03T05:19:10.298Z,99790.22
2022-10-03T05:21:47.350Z,99791.91
2022-10-03T05:24:24.730Z,99799.34
2022-10-03T05:27:17.136Z,99791.78
2022-10-03T05:30:04.429Z,99796.28
2022-10-03T05:32:44.557Z,99793.16
2022-10-03T05:35:31.461Z,99785.22
2022-10-03T05:38:10.030Z,99790.09
2022-10-03T05:40:43.202Z,99794.84
2022-10-03T05:43:31.783Z,99799.97
2022-10-03T05:46:06.922Z,99803.44
2022-10-03T05:49:13.587Z,99804.19
2022-10-03T05:52:06.497Z,99817.81
2022-10-03T05:54:43.222Z,99817.06
2022-10-03T05:57:28.796Z,99818.28
2022-10-03T06:00:23.247Z,99818.44
2022-10-03T06:02:59.307Z,99817.63
2022-10-03T06:05:49.186Z,99816.03
2022-10-03T06:08:59.098Z,99821.94
2022-10-03T06:11:42.625Z,99828.16
2022-10-03T06:14:20.414Z,99819.81
2022-10-03T06:16:56.312Z,99834.03
2022-10-03T06:19:44.657Z,99823.34
2022-10-03T06:22:17.853Z,99824.50
2022-10-03T06:25:13.857Z,99825.94
2022-10-03T06:28:02.686Z,99833.78
2022-10-03T06:30:35.295Z,99830.69
2022-10-03T06:33:05.571Z,99826.47
2022-10-03T06:35:57.974Z,99825.03
2022-10-03T06:38:38.800Z,99840.16
2022-10-03T06:41:24.420Z,99833.06
2022-10-03T06:44:09.663Z,99838.75
2022-10-03T06:47:01.566Z,99843.47
2022-10-03T06:49:46.449Z,99850.75
2022-10-03T06:52:33.564Z,99852.91
2022-10-03T06:55:19.207Z,99852.22
2022-10-03T06:58:01.428Z,99856.88
2022-10-03T07:00:37.625Z,99861.16
2022-10-03T07:03:13.613Z,99867.44
2022-10-03T07:06:03.421Z,99874.84
2022-10-03T07:08:51.124Z,99861.78
2022-10-03T07:11:28.836Z,99866.84
2022-10-03T07:14:10.925Z,99862.94
2022-10-03T07:16:44.077Z,99864.59
2022-10-03T07:19:20.419Z,99866.28
2022-10-03T07:21:56.679Z,99879.25
2022-10-03T07:24:26.131Z,99890.47
2022-10-03T07:27:16.393Z,99895.16
2022-10-03T07:30:07.738Z,99898.34
2022-10-03T07:32:57.606Z,99899.78
2022-10-03T07:36:01.789Z,99896.41
2022-10-03T07:38:59.812Z,99895.06
2022-10-03T07:42:18.899Z,99902.88
2022-10-03T07:45:06.028Z,99909.13
2022-10-03T07:47:58.733Z,99900.19
2022-10-03T07:50:45.571Z,99897.84
2022-10-03T07:53:42.545Z,99893.59
2022-10-03T07:56:20.406Z,99896.16
2022-10-03T07:59:19.549Z,99891.56
2022-10-03T08:01:49.468Z,99896.63
2022-10-03T08:04:53.629Z,99893.56
2022-10-03T08:07:47.000Z,99884.38
2022-10-03T08:13:32.496Z,99877.63
2022-10-03T08:19:51.819Z,99876.88
2022-10-03T08:22:35.298Z,99871.06
2022-10-03T08:25:23.965Z,99877.94
2022-10-03T08:28:21.680Z,99870.13
2022-10-03T08:31:11.340Z,99877.72
2022-10-03T08:33:59.663Z,99881.81
2022-10-03T08:36:47.327Z,99879.41
2022-10-03T08:39:31.652Z,99879.22
2022-10-03T08:42:15.739Z,99880.94
2022-10-03T08:44:59.143Z,99886.75
2022-10-03T08:47:40.603Z,99877.97
2022-10-03T08:50:16.165Z,99891.41
2022-10-03T08:53:05.035Z,99892.59
2022-10-03T08:56:00.208Z,99896.03
2022-10-03T08:58:35.391Z,99898.56
2022-10-03T09:01:15.341Z,99891.81
2022-10-03T09:04:12.067Z,99895.34
2022-10-03T09:07:15.931Z,99878.25
2022-10-03T09:10:15.229Z,99885.88
2022-10-03T09:13:08.318Z,99884.28
2022-10-03T09:15:53.791Z,99887.97
2022-10-03T09:18:41.856Z,99882.88
2022-10-03T09:21:28.356Z,99882.16
2022-10-03T09:24:01.378Z,99894.28
2022-10-03T09:30:05.882Z,99893.28
2022-10-03T09:33:06.333Z,99884.56
2022-10-03T09:35:54.701Z,99896.16
2022-10-03T09:38:24.291Z,99900.69
2022-10-03T09:41:08.667Z,99898.44
2022-10-03T09:44:00.740Z,99890.50
2022-10-03T09:46:46.899Z,99882.38
2022-10-03T09:49:46.207Z,99890.47
2022-10-03T09:52:36.242Z,99872.31
2022-10-03T09:58:13.573Z,99881.06
2022-10-03T10:01:06.502Z,99874.19
2022-10-03T10:03:57.689Z,99874.44
2022-10-03T10:06:40.279Z,99875.06
2022-10-03T10:09:21.203Z,99868.97
2022-10-03T10:12:16.567Z,99876.63
2022-10-03T10:14:49.580Z,99889.16
2022-10-03T10:17:40.950Z,99876.44
2022-10-03T10:20:43.656Z,99879.31
2022-10-03T10:26:47.614Z,99873.53
2022-10-03T10:29:30.061Z,99867.72
2022-10-03T10:32:21.620Z,99865.78
2022-10-03T10:35:29.745Z,99854.41
2022-10-03T10:38:18.001Z,99858.47
2022-10-03T10:41:06.109Z,99863.22
2022-10-03T10:44:02.348Z,99857.44
2022-10-03T10:49:45.670Z,99860.78
2022-10-03T10:56:24.381Z,99864.28
2022-10-03T10:59:09.626Z,99866.66
2022-10-03T11:01:48.035Z,99867.38
2022-10-03T11:07:54.189Z,99864.09
2022-10-03T11:10:26.682Z,99868.34
2022-10-03T11:13:15.013Z,99853.72
2022-10-03T11:15:50.790Z,99865.00
2022-10-03T11:18:32.779Z,99867.59
2022-10-03T11:21:18.101Z,99865.94
2022-10-03T11:26:57.820Z,99861.47
2022-10-03T11:29:35.480Z,99868.44
2022-10-03T11:32:24.257Z,99884.47
2022-10-03T11:35:22.922Z,99893.34
2022-10-03T11:38:16.765Z,99885.53
2022-10-03T11:41:11.625Z,99894.00
2022-10-03T11:44:04.660Z,99882.63
2022-10-03T11:46:50.477Z,99893.59
2022-10-03T11:49:33.335Z,99887.81
2022-10-03T11:52:12.621Z,99898.16
2022-10-03T11:54:52.510Z,99887.59
2022-10-03T11:57:22.533Z,99902.34
2022-10-03T12:03:18.111Z,99892.38
2022-10-03T12:06:18.994Z,99888.75
2022-10-03T12:09:08.301Z,99885.94
2022-10-03T12:12:10.567Z,99881.16
2022-10-03T12:14:54.169Z,99879.19
2022-10-03T12:17:33.514Z,99891.31
2022-10-03T12:21:51.191Z,99878.94
2022-10-03T12:27:42.253Z,99873.41
2022-10-03T12:30:28.048Z,99879.09
2022-10-03T12:33:30.494Z,99887.38
2022-10-03T12:36:36.212Z,99902.75
2022-10-03T12:39:31.148Z,99886.38
2022-10-03T12:42:25.460Z,99903.69
2022-10-03T12:45:15.899Z,99880.63
2022-10-03T12:51:44.982Z,99885.06
2022-10-03T12:54:51.543Z,99888.41
2022-10-03T12:58:03.215Z,99878.75
2022-10-03T13:00:43.929Z,99875.31
2022-10-03T13:03:26.752Z,99878.28
2022-10-03T13:06:04.985Z,99879.59
2022-10-03T13:09:05.752Z,99873.91
2022-10-03T13:12:31.417Z,99868.84
2022-10-03T13:15:22.451Z,99865.41
2022-10-03T13:18:03.844Z,99862.00
2022-10-03T13:20:42.502Z,99860.88
2022-10-03T13:23:42.881Z,99864.75
2022-10-03T13:26:30.376Z,99874.16
2022-10-03T13:29:23.808Z,99856.31
2022-10-03T13:32:33.394Z,99848.56
2022-10-03T13:35:52.041Z,99848.06
2022-10-03T13:38:59.461Z,99851.06
2022-10-03T13:41:45.496Z,99846.50
2022-10-03T13:48:03.874Z,99864.75
2022-10-03T13:51:01.188Z,99854.75
2022-10-03T13:54:00.324Z,99865.19
2022-10-03T13:56:29.240Z,99859.47
2022-10-03T13:59:26.104Z,99863.91
2022-10-03T14:02:07.648Z,99863.53
2022-10-03T14:04:40.183Z,99856.69
2022-10-03T14:07:43.754Z,99861.25
2022-10-03T14:10:10.743Z,99852.13
2022-10-03T14:12:56.538Z,99853.50
2022-10-03T14:15:48.575Z,99850.72
2022-10-03T14:18:32.719Z,99847.22
2022-10-03T14:21:19.772Z,99857.84
2022-10-03T14:23:54.182Z,99854.78
2022-10-03T14:26:53.405Z,99854.47
2022-10-03T14:29:36.415Z,99855.28
2022-10-03T14:32:46.839Z,99858.22
2022-10-03T14:36:25.112Z,99863.56
2022-10-03T14:39:20.894Z,99867.66
2022-10-03T14:41:59.521Z,99864.34
2022-10-03T14:44:42.356Z,99868.75
2022-10-03T14:47:19.795Z,99875.38
2022-10-03T14:49:59.998Z,99872.16
2022-10-03T14:52:49.846Z,99868.09
2022-10-03T14:55:21.241Z,99874.63
2022-10-03T14:58:17.586Z,99871.34
2022-10-03T15:00:55.533Z,99870.75
2022-10-03T15:03:49.227Z,99870.63
2022-10-03T15:06:35.792Z,99866.59
2022-10-03T15:09:12.459Z,99863.53
2022-10-03T15:12:24.124Z,99860.22
2022-10-03T15:15:43.493Z,99867.72
2022-10-03T15:18:24.896Z,99873.72
2022-10-03T15:21:04.839Z,99877.25
2022-10-03T15:23:41.782Z,99869.16
2022-10-03T15:26:36.466Z,99872.31
2022-10-03T15:29:11.266Z,99876.66
2022-10-03T15:32:01.413Z,99888.53
2022-10-03T15:34:40.388Z,99881.16
2022-10-03T15:37:26.144Z,99886.28
2022-10-03T15:40:05.658Z,99884.22
2022-10-03T15:43:11.474Z,99897.59
2022-10-03T15:45:56.785Z,99896.75
2022-10-03T15:48:28.148Z,99895.03
2022-10-03T15:51:00.871Z,99899.66
2022-10-03T15:53:43.854Z,99904.66
2022-10-03T15:56:43.363Z,99904.75
2022-10-03T15:59:37.331Z,99907.16
2022-10-03T16:02:30.646Z,99898.16
2022-10-03T16:05:06.162Z,99903.00
2022-10-03T16:07:47.447Z,99905.72
2022-10-03T16:11:21.813Z,99906.88
2022-10-03T16:14:34.627Z,99904.03
2022-10-03T16:17:19.472Z,99902.56
2022-10-03T16:20:03.287Z,99904.91
2022-10-03T16:22:51.726Z,99904.75
2022-10-03T16:25:46.416Z,99914.88
2022-10-03T16:28:59.672Z,99896.63
2022-10-03T16:31:46.197Z,99917.22
2022-10-03T16:34:28.790Z,99912.03
2022-10-03T16:37:18.296Z,99917.09
2022-10-03T16:40:07.317Z,99917.50
2022-10-03T16:42:44.742Z,99910.09
2022-10-03T16:45:39.361Z,99902.13
2022-10-03T16:48:41.538Z,99904.47
2022-10-03T16:51:23.165Z,99905.56
2022-10-03T16:54:09.242Z,99901.84
2022-10-03T16:56:50.210Z,99914.78
2022-10-03T16:59:30.499Z,99916.56
2022-10-03T17:02:20.364Z,99913.38
2022-10-03T17:05:05.727Z,99917.34
2022-10-03T17:07:56.845Z,99917.97
2022-10-03T17:10:40.129Z,99925.16
2022-10-03T17:13:19.508Z,99923.81
2022-10-03T17:16:08.454Z,99928.66
2022-10-03T17:18:44.742Z,99934.38
2022-10-03T17:21:42.012Z,99931.50
2022-10-03T17:24:37.200Z,99919.94
2022-10-03T17:27:22.961Z,99930.16
2022-10-03T17:30:04.437Z,99930.63
2022-10-03T17:32:43.904Z,99932.72
2022-10-03T17:35:51.063Z,99931.81
2022-10-03T17:38:56.298Z,99933.63
2022-10-03T17:41:43.713Z,99937.41
2022-10-03T17:44:40.592Z,99939.03
2022-10-03T17:50:25.923Z,99933.47
2022-10-03T17:52:56.178Z,99948.25
2022-10-03T17:55:27.513Z,99952.69
2022-10-03T17:57:58.783Z,99946.88
2022-10-03T18:00:54.738Z,99952.75
2022-10-03T18:03:27.374Z,99951.09
2022-10-03T18:06:40.617Z,99959.81
2022-10-03T18:09:29.776Z,99954.84
2022-10-03T18:12:39.306Z,99966.28
2022-10-03T18:15:58.480Z,99972.34
2022-10-03T18:18:50.837Z,99977.06
2022-10-03T18:21:55.363Z,99972.47
2022-10-03T18:24:32.561Z,99985.22
2022-10-03T18:27:41.329Z,99994.19
2022-10-03T18:31:03.112Z,99990.88
2022-10-03T18:33:36.414Z,99988.72
2022-10-03T18:36:16.424Z,99979.66
2022-10-03T18:39:06.286Z,99988.41
2022-10-03T18:41:48.130Z,99981.16
2022-10-03T18:44:19.798Z,99974.38
2022-10-03T18:46:59.418Z,99978.50
2022-10-03T18:49:38.550Z,99971.00
2022-10-03T18:52:21.539Z,99979.44
2022-10-03T18:55:16.408Z,99981.25
2022-10-03T18:58:31.793Z,99983.72
2022-10-03T19:01:31.333Z,99988.81
2022-10-03T19:04:07.810Z,99993.63
2022-10-03T19:06:47.790Z,99999.47
2022-10-03T19:09:35.262Z,99998.56
2022-10-03T19:12:23.798Z,100004.06
2022-10-03T19:15:04.910Z,100003.38
2022-10-03T19:17:53.978Z,100006.16
2022-10-03T19:20:30.208Z,100005.09
2022-10-03T19:23:29.874Z,100005.50
2022-10-03T19:26:26.021Z,99995.09
2022-10-03T19:29:01.550Z,99998.41
2022-10-03T19:31:43.524Z,99989.94
2022-10-03T19:34:28.799Z,99994.56
2022-10-03T19:37:06.031Z,99988.16
2022-10-03T19:39:45.901Z,99997.53
2022-10-03T19:42:25.008Z,100002.53
2022-10-03T19:45:01.957Z,100015.09
2022-10-03T19:47:44.729Z,100014.66
2022-10-03T19:50:24.127Z,100025.50
2022-10-03T19:52:59.320Z,100026.94
2022-10-03T19:55:41.045Z,100027.66
2022-10-03T19:58:24.906Z,100029.84
2022-10-03T20:01:04.970Z,100022.34
2022-10-03T20:03:58.361Z,100029.84
2022-10-03T20:06:40.713Z,100029.59
2022-10-03T20:09:23.104Z,100037.91
2022-10-03T20:12:16.831Z,100041.81
2022-10-03T20:14:43.981Z,100034.75
2022-10-03T20:20:30.396Z,100033.06
2022-10-03T20:23:25.971Z,100039.56
2022-10-03T20:26:10.218Z,100044.75
2022-10-03T20:29:17.412Z,100039.41
2022-10-03T20:31:48.146Z,100044.75
2022-10-03T20:34:25.429Z,100045.56
2022-10-03T20:37:07.906Z,100043.56
2022-10-03T20:39:39.698Z,100052.06
2022-10-03T20:42:16.453Z,100043.56
2022-10-03T20:45:01.254Z,100048.72
2022-10-03T20:47:52.933Z,100056.44
2022-10-03T20:50:31.206Z,100054.81
2022-10-03T20:53:01.890Z,100059.16
2022-10-03T20:55:52.734Z,100054.19
2022-10-03T20:58:39.218Z,100046.31
2022-10-03T21:01:27.986Z,100052.94
2022-10-03T21:04:18.001Z,100059.81
2022-10-03T21:07:35.539Z,100056.72
2022-10-03T21:10:17.545Z,100065.84
2022-10-03T21:12:49.654Z,100063.34
2022-10-03T21:15:48.407Z,100073.97
2022-10-03T21:18:37.922Z,100080.22
2022-10-03T21:21:14.518Z,100082.94
2022-10-03T21:24:03.844Z,100082.69
2022-10-03T21:26:44.840Z,100084.31
2022-10-03T21:29:28.333Z,100089.50
2022-10-03T21:32:28.312Z,100087.38
2022-10-03T21:35:06.358Z,100092.97
2022-10-03T21:38:04.792Z,100086.78
2022-10-03T21:40:52.139Z,100096.16
2022-10-03T21:43:52.303Z,100092.44
2022-10-03T21:46:27.555Z,100093.50
2022-10-03T21:49:22.395Z,100093.69
2022-10-03T21:52:17.623Z,100082.91
2022-10-03T21:55:33.554Z,100072.28
2022-10-03T21:58:30.125Z,100085.19
2022-10-03T22:01:47.769Z,100081.44
2022-10-03T22:04:26.564Z,100076.84
2022-10-03T22:07:21.192Z,100074.78
2022-10-03T22:10:02.227Z,100071.88
2022-10-03T22:15:48.261Z,100070.63
2022-10-03T22:18:20.613Z,100076.03
2022-10-03T22:21:15.565Z,100076.22
2022-10-03T22:23:49.102Z,100074.16
2022-10-03T22:26:41.571Z,100076.84
2022-10-03T22:29:27.532Z,100082.47
2022-10-03T22:32:05.788Z,100078.50
2022-10-03T22:34:59.316Z,100072.28
2022-10-03T22:37:38.407Z,100070.63
2022-10-03T22:40:17.171Z,100058.16
2022-10-03T22:42:52.762Z,100059.41
2022-10-03T22:45:39.136Z,100056.91
2022-10-03T22:48:34.349Z,100059.41
2022-10-03T22:51:22.813Z,100061.09
2022-10-03T22:54:09.715Z,100064.59
2022-10-03T22:56:48.550Z,100057.75
2022-10-03T22:59:27.269Z,100060.22
2022-10-03T23:02:01.543Z,100066.06
2022-10-03T23:04:37.036Z,100073.97
2022-10-03T23:07:35.882Z,100070.66
2022-10-03T23:10:26.858Z,100077.72
2022-10-03T23:13:09.505Z,100080.63
2022-10-03T23:15:42.183Z,100080.63
2022-10-03T23:18:11.370Z,100093.91
2022-10-03T23:20:57.346Z,100095.13
2022-10-03T23:23:54.817Z,100090.56
2022-10-03T23:26:46.743Z,100089.31
2022-10-03T23:29:32.259Z,100092.59
2022-10-03T23:32:04.395Z,100094.28
2022-10-03T23:34:50.220Z,100101.34
2022-10-03T23:37:24.326Z,100096.97
2022-10-03T23:40:03.227Z,100101.75
2022-10-03T23:43:05.290Z,100087.59
2022-10-03T23:45:38.362Z,100093.41
2022-10-03T23:48:18.165Z,100089.91
2022-10-03T23:51:08.398Z,100096.34
2022-10-03T23:53:39.464Z,100100.09
2022-10-03T23:56:30.504Z,100111.72
2022-10-03T23:59:07.877Z,100111.13
